Lake Levels Lake Levels   »   United States   »   Texas
LAKES RIVERS MARINAS NEWS HOUSES EVENTS MAPS
1,681 Lakes:
Lake Store

Lake Levels in Texas, United States

Lake Name Current
Level
Full Pool +/-
Full Pool
Reading
Date - Time
Alan Henry (TX) 2,210.97 2,224.00 -13.03 9/28/2022  12:30 AM
Amistad (TX) 1,074.56 1,117.00 -42.44 9/28/2022  4:15 AM
Amon Carter (TX) 918.48 920.00 -1.52 9/28/2022  12:00 AM
Aquilla (TX) 532.10 537.50 -5.40 9/28/2022  3:30 AM
Arlington (TX) 547.25 550.00 -2.75 9/28/2022  12:00 AM
Arrowhead (TX) 920.74 926.00 -5.26 9/28/2022  4:00 AM
Austin (TX) 492.07 492.80 -0.73 9/28/2022  4:00 AM
Bardwell (TX) 418.84 421.00 -2.16 9/28/2022  4:30 AM
Belton (TX) 583.58 594.00 -10.42 9/28/2022  4:00 AM
Benbrook (TX) 686.38 694.00 -7.62 9/28/2022  4:00 AM
Bob Sandlin (TX) 336.02 337.50 -1.48 9/27/2022  9:50 AM
Bonham (TX) 562.72 565.00 -2.28 9/28/2022  4:00 AM
Brady Creek (TX) 1,732.33 1,743.00 -10.67 9/28/2022  4:45 AM
Bridgeport (TX) 828.52 836.00 -7.48 9/28/2022  3:00 AM
Brownwood (TX) 1,417.26 1,425.00 -7.74 9/28/2022  3:30 AM
Buchanan (TX) 1,003.58 1,020.50 -16.92 9/27/2022  10:05 AM
Caddo (LA TX) 168.70 168.50 0.20 9/27/2022  6:46 AM
Canyon (TX) 901.81 909.00 -7.19 9/28/2022  4:15 AM
Cedar Creek (TX) 318.05 322.00 -3.95 9/28/2022  3:45 AM
Champion Creek (TX) 2,069.41 2,083.00 -13.59 9/27/2022  9:33 AM
Cherokee (TX) 278.29 280.00 -1.71 9/28/2022  12:45 AM
Choke Canyon (TX) 197.82 220.50 -22.68 9/27/2022  6:30 AM
Cisco (TX) 1,514.96 1,520.00 -5.04 9/28/2022  12:30 AM
Coleman (TX) 1,712.21 1,718.00 -5.79 9/28/2022  3:30 AM
Coleto Creek (TX) 96.59 98.28 -1.69 9/28/2022  12:00 AM
Colorado City (TX) 2,059.86 2,070.20 -10.34 9/27/2022  9:33 AM
Conroe (TX) 199.10 201.00 -1.90 9/28/2022  1:45 AM
Corpus Christi (TX) 92.23 94.00 -1.77 9/27/2022  10:48 AM
E. V. Spence (TX) 1,854.46 1,898.00 -43.54 9/28/2022  3:00 AM
Eagle Mountain (TX) 644.56 649.00 -4.44 9/28/2022  4:00 AM
Falcon (TX) 261.75 301.20 -39.45 9/27/2022  9:30 PM
Fork (TX) 396.70 403.00 -6.30 9/28/2022  4:30 AM
Georgetown (TX) 774.84 791.00 -16.16 9/28/2022  4:00 AM
Graham (TX) 1,071.51 1,075.00 -3.49 9/28/2022  3:00 AM
Granbury (TX) 690.52 693.00 -2.48 9/28/2022  12:35 AM
Granger (TX) 502.04 504.00 -1.96 9/28/2022  12:00 AM
Grapevine (TX) 534.57 535.00 -0.43 9/28/2022  4:45 AM
Hords Creek (TX) 1,883.78 1,900.00 -16.22 9/28/2022  12:30 AM
Houston (TX) 42.13 42.40 -0.27 9/28/2022  4:30 AM
Hubbard Creek (TX) 1,176.92 1,183.00 -6.08 9/28/2022  4:15 AM
Hubert M Moss (TX) 712.64 715.00 -2.36 9/28/2022  2:15 AM
Inks (TX) 887.12 886.90 0.22 9/28/2022  12:00 AM
Jacksonville (TX) 420.11 422.00 -1.89 9/28/2022  12:00 AM
JB Thomas (TX) 2,230.42 2,258.00 -27.58 9/28/2022  2:45 AM
Jim Chapman (TX) 435.06 440.00 -4.94 9/27/2022  9:50 AM
Joe Pool (TX) 520.62 522.00 -1.38 9/28/2022  2:00 AM
Kemp (TX) 1,134.36 1,144.00 -9.64 9/28/2022  4:15 AM
Kickapoo (TX) 1,038.46 1,045.00 -6.54 9/28/2022  3:00 AM
Lake O' the Pines (TX) 228.03 228.50 -0.47 9/27/2022  9:50 AM
Lavon (TX) 486.46 492.00 -5.54 9/28/2022  12:00 AM
Leon (TX) 1,368.27 9/28/2022  3:30 AM
Lewisville (TX) 517.81 522.00 -4.19 9/28/2022  3:15 AM
Limestone (TX) 358.49 363.00 -4.51 9/28/2022  4:45 AM
Livingston (TX) 130.59 131.00 -0.41 9/28/2022  12:00 AM
Lyndon B. Johnson (TX) 824.73 825.00 -0.27 9/27/2022  10:05 AM
MacKenzie (TX) 3,007.15 3,100.00 -92.85 9/28/2022  1:30 AM
Marble Falls (TX) 736.35 737.00 -0.65 9/27/2022  10:05 AM
Martin Creek (TX) 302.96 306.00 -3.04 9/28/2022  4:30 AM
Medina (TX) 987.64 1,062.00 -74.36 9/28/2022  2:00 AM
Meredith (TX) 2,882.75 2,941.00 -58.25 9/28/2022  3:30 AM
Mexia (TX) 446.44 448.30 -1.86 9/28/2022  3:45 AM
Millers Creek (TX) 1,329.07 1,334.00 -4.93 9/28/2022  2:00 AM
Mineral Wells (TX) 861.25 863.00 -1.75 9/28/2022  7:30 AM
Moss Creek (TX) 2,326.99 2,337.00 -10.01 9/28/2022  4:45 AM
Mountain Creek (TX) 457.57 457.00 0.57 9/28/2022  3:45 AM
Murvaul (TX) 265.08 265.50 -0.42 9/27/2022  9:50 AM
Nacogdoches (TX) 275.64 279.00 -3.36 9/27/2022  9:50 AM
Natural Dam Salt (TX) 2,447.29 2,457.00 -9.71 9/28/2022  12:00 AM
Navarro Mills (TX) 421.53 424.50 -2.97 9/28/2022  1:00 AM
Nocona (TX) 823.96 827.00 -3.04 9/28/2022  12:00 AM
O. C. Fisher (TX) 1,860.65 1,908.00 -47.35 9/28/2022  4:00 AM
O.H. Ivie (TX) 1,529.58 1,551.50 -21.92 9/28/2022  2:45 AM
Oak Creek (TX) 1,990.00 2,000.00 -10.00 9/28/2022  12:00 AM
Palestine (TX) 342.78 345.00 -2.22 9/28/2022  2:00 AM
Palo Pinto (TX) 862.14 867.00 -4.86 9/28/2022  4:15 AM
Pat Cleburne (TX) 725.03 733.60 -8.57 9/28/2022  2:00 AM
Pat Mayse (TX) 448.74 451.00 -2.26 9/27/2022  9:50 AM
Phantom Hill (TX) 1,629.31 1,635.90 -6.59 9/28/2022  4:30 AM
Possum Kingdom (TX) 995.04 1,000.00 -4.96 9/28/2022  2:30 AM
Proctor (TX) 1,154.03 1,162.00 -7.97 9/28/2022  12:30 AM
Ray Hubbard (TX) 432.95 435.50 -2.55 9/28/2022  4:45 AM
Ray Roberts (TX) 630.54 632.50 -1.96 9/28/2022  3:15 AM
Red Bluff (TX) 2,819.64 2,827.13 -7.49 9/28/2022  2:15 AM
Richland Chambers (TX) 310.27 315.00 -4.73 9/28/2022  1:45 AM
Sam Rayburn (TX) 159.38 164.40 -5.02 9/28/2022  3:45 AM
Somerville (TX) 232.74 238.00 -5.26 9/28/2022  12:00 AM
Squaw Creek (TX) 775.31 775.00 0.31 9/28/2022  4:00 AM
Stamford (TX) 1,412.92 1,417.00 -4.08 9/28/2022  3:30 AM
Steinhagen Reservoir (TX) 82.56 82.40 0.16 9/28/2022  4:00 AM
Stillhouse Hollow (TX) 612.41 622.00 -9.59 9/28/2022  2:00 AM
Striker (TX) 291.70 292.93 -1.23 9/28/2022  4:45 AM
Tawakoni (TX) 433.83 437.50 -3.67 9/28/2022  2:15 AM
Texana (TX) 39.50 44.00 -4.50 9/28/2022  12:00 AM
Texoma (TX) 614.83 617.00 -2.17 9/28/2022  3:00 AM
Toledo Bend (TX LA) 167.67 172.00 -4.33 9/28/2022  4:30 AM
Travis (TX) 643.24 681.00 -37.76 9/28/2022  2:00 AM
Twin Buttes (TX) 1,918.56 1,940.00 -21.44 9/28/2022  12:00 AM
Waco (TX) 452.07 462.00 -9.93 9/28/2022  12:15 AM
Waxahachie (TX) 527.21 9/28/2022  12:00 AM
Weatherford (TX) 888.67 896.00 -7.33 9/28/2022  12:45 AM
White River (TX) 2,348.84 9/28/2022  1:15 AM
Whitney (TX) 525.87 533.00 -7.13 9/28/2022  12:15 AM
Worth (TX) 591.53 594.00 -2.47 9/28/2022  3:00 AM
Wright Patman (TX) 225.97 220.60 5.37 9/27/2022  9:50 AM


CURRENT DAILY STREAMFLOW CONDITIONS
High
90th percentile
75th - 89th percentile
25th - 74th percentile
10th - 24th percentile
10th percentile
Low
Not ranked

The colored dots on this map depict streamflow conditions as a percentile, which is computed from the period of record for the current day of the year. Only stations with at least 30 years of record are used. The gray circles indicate other stations that were not ranked in percentiles either because they have fewer than 30 years of record or because they report parameters other than streamflow. Some stations, for example, measure stage only.
U.S. Daily Streamflow Conditions



U.S. Drought Monitor